Time;durP1;ratioP1;P1;durP2;ratioP2;P2;SDS_P1;SDS_P2;PMS_P1;PMS_P2;Temp;Humidity;BMP_temperature;BMP_pressure;BME280_temperature;BME280_humidity;BME280_pressure;Samples;Min_cycle;Max_cycle;Signal;HPM_P1;HPM_P2
2022/04/07 00:01:28;;;;;;;9.50;5.45;;;8.90;99.90;;;;;;4995516;28;20086;-83
2022/04/07 00:03:54;;;;;;;11.48;5.68;;;8.90;99.90;;;;;;4995668;28;20102;-83
2022/04/07 00:06:20;;;;;;;10.18;5.80;;;8.90;99.90;;;;;;4997657;28;20110;-83
2022/04/07 00:08:46;;;;;;;9.35;5.90;;;8.80;99.90;;;;;;5015567;28;20058;-82
2022/04/07 00:11:12;;;;;;;9.63;5.60;;;8.80;99.90;;;;;;5015450;28;20501;-83
2022/04/07 00:13:38;;;;;;;11.70;6.38;;;8.70;99.90;;;;;;4997200;28;20470;-83
2022/04/07 00:16:04;;;;;;;15.40;6.15;;;8.70;99.90;;;;;;4998112;28;20367;-83
2022/04/07 00:18:30;;;;;;;11.73;6.13;;;8.80;99.90;;;;;;5015108;28;20469;-82
2022/04/07 00:20:56;;;;;;;9.35;6.13;;;8.80;99.90;;;;;;5015685;28;20135;-83
2022/04/07 00:23:22;;;;;;;9.15;5.40;;;8.90;99.90;;;;;;5015391;28;20056;-82
2022/04/07 00:25:49;;;;;;;14.02;5.90;;;8.90;99.90;;;;;;5015179;28;20049;-83
2022/04/07 00:28:15;;;;;;;10.43;5.70;;;8.80;99.90;;;;;;5015441;28;20510;-82
2022/04/07 00:30:43;;;;;;;8.45;5.47;;;8.90;99.90;;;;;;5014924;28;20068;-82
2022/04/07 00:33:09;;;;;;;8.27;4.68;;;8.90;99.90;;;;;;4997733;28;20108;-83
2022/04/07 00:35:35;;;;;;;10.18;5.82;;;8.90;99.90;;;;;;5015283;28;20026;-82
2022/04/07 00:38:01;;;;;;;8.13;5.60;;;9.00;99.90;;;;;;5004526;28;20035;-82
2022/04/07 00:40:27;;;;;;;9.25;5.10;;;8.90;99.90;;;;;;4975973;28;20363;-82
2022/04/07 00:42:53;;;;;;;12.32;5.90;;;8.90;99.90;;;;;;4976035;28;20038;-83
2022/04/07 00:45:20;;;;;;;8.30;4.78;;;8.90;99.90;;;;;;4976096;28;20019;-83
2022/04/07 00:47:47;;;;;;;7.68;5.35;;;9.00;99.90;;;;;;4975964;28;20505;-82
2022/04/07 00:50:17;;;;;;;13.38;5.68;;;9.00;99.90;;;;;;4958930;28;20027;-83
2022/04/07 00:52:55;;;;;;;6.60;4.68;;;9.00;99.90;;;;;;4975356;28;20034;-83
2022/04/07 00:55:22;;;;;;;11.68;4.82;;;9.00;99.90;;;;;;4994344;28;20486;-83
2022/04/07 00:57:48;;;;;;;10.38;5.43;;;9.00;99.90;;;;;;4995197;28;20105;-84
2022/04/07 01:00:15;;;;;;;9.73;5.03;;;9.00;99.90;;;;;;4995032;28;20465;-82
2022/04/07 01:02:41;;;;;;;7.05;4.88;;;8.90;99.90;;;;;;4999843;28;20086;-83
2022/04/07 01:05:09;;;;;;;9.75;4.35;;;9.00;99.90;;;;;;4986960;28;20474;-82
2022/04/07 01:07:37;;;;;;;7.43;4.85;;;9.00;99.90;;;;;;4994545;28;20058;-82
2022/04/07 01:10:05;;;;;;;11.85;5.30;;;9.00;99.90;;;;;;4985356;28;20030;-83
2022/04/07 01:12:31;;;;;;;15.20;5.72;;;8.90;99.90;;;;;;4975424;28;20030;-82
2022/04/07 01:15:01;;;;;;;8.40;4.95;;;8.90;99.90;;;;;;4975404;28;20031;-83
2022/04/07 01:17:27;;;;;;;8.18;4.95;;;8.90;99.90;;;;;;4975225;28;20042;-82
2022/04/07 01:19:53;;;;;;;12.38;6.20;;;8.90;99.90;;;;;;4957998;28;20030;-83
2022/04/07 01:22:20;;;;;;;14.00;5.32;;;8.90;99.90;;;;;;4975215;28;20027;-83
2022/04/07 01:24:47;;;;;;;11.13;5.07;;;8.90;99.90;;;;;;4975309;28;20085;-83
2022/04/07 01:27:14;;;;;;;9.57;5.53;;;8.90;99.90;;;;;;4975469;28;20030;-83
2022/04/07 01:29:40;;;;;;;10.45;5.15;;;8.90;99.90;;;;;;4975204;28;20114;-83
2022/04/07 01:32:19;;;;;;;8.45;5.30;;;8.90;99.90;;;;;;4975833;28;20038;-82
2022/04/07 01:34:45;;;;;;;13.85;5.07;;;8.80;99.90;;;;;;4994549;28;20076;-82
2022/04/07 01:37:11;;;;;;;8.45;5.28;;;8.80;99.90;;;;;;4976567;28;20033;-83
2022/04/07 01:39:39;;;;;;;10.63;5.80;;;8.80;99.90;;;;;;4994429;28;20026;-83
2022/04/07 01:42:07;;;;;;;8.52;5.13;;;8.90;99.90;;;;;;4994425;28;20422;-83
2022/04/07 01:44:36;;;;;;;9.35;5.22;;;8.90;99.90;;;;;;4994319;28;20162;-83
2022/04/07 01:47:03;;;;;;;11.30;5.45;;;8.90;99.90;;;;;;4994317;28;20037;-83
2022/04/07 01:49:33;;;;;;;7.55;5.05;;;8.90;99.90;;;;;;4994352;28;20029;-83
2022/04/07 01:52:02;;;;;;;8.25;5.13;;;8.90;99.90;;;;;;4993953;28;20032;-83
2022/04/07 01:54:28;;;;;;;8.35;4.88;;;8.90;99.90;;;;;;4976711;28;20019;-82
2022/04/07 01:56:55;;;;;;;9.25;4.82;;;8.80;99.90;;;;;;4993751;28;20565;-83
2022/04/07 01:59:21;;;;;;;13.02;5.28;;;8.80;99.90;;;;;;4994156;28;20023;-83
2022/04/07 02:01:47;;;;;;;11.05;5.82;;;8.80;99.90;;;;;;4987341;28;20097;-83
2022/04/07 02:04:13;;;;;;;7.38;4.68;;;8.90;99.90;;;;;;4974623;28;20439;-83
2022/04/07 02:06:38;;;;;;;7.93;4.95;;;8.80;99.90;;;;;;4978063;28;20022;-83
2022/04/07 02:09:04;;;;;;;7.88;4.95;;;8.80;99.90;;;;;;4993897;28;20080;-83
2022/04/07 02:11:32;;;;;;;9.38;4.72;;;8.80;99.90;;;;;;4993970;28;20026;-83
2022/04/07 02:13:57;;;;;;;9.25;5.07;;;8.80;99.90;;;;;;4993673;28;20455;-83
2022/04/07 02:16:23;;;;;;;7.78;4.45;;;8.80;99.90;;;;;;4993893;28;20109;-83
2022/04/07 02:18:49;;;;;;;8.25;4.32;;;8.80;99.90;;;;;;4993631;28;20110;-83
2022/04/07 02:21:14;;;;;;;9.43;4.72;;;8.80;99.90;;;;;;4993478;28;20494;-83
2022/04/07 02:23:42;;;;;;;9.68;4.43;;;8.80;99.90;;;;;;4993574;28;20023;-83
2022/04/07 02:26:19;;;;;;;10.18;5.18;;;8.80;99.90;;;;;;4993485;28;20109;-83
2022/04/07 02:28:45;;;;;;;6.90;4.38;;;8.80;99.90;;;;;;4993635;28;20181;-83
2022/04/07 02:31:11;;;;;;;7.20;4.45;;;8.80;99.90;;;;;;4989275;28;20067;-83
2022/04/07 02:33:37;;;;;;;9.70;4.53;;;8.80;99.90;;;;;;4974025;28;20034;-83
2022/04/07 02:36:05;;;;;;;9.75;4.78;;;8.80;99.90;;;;;;4956310;28;20569;-83
2022/04/07 02:38:31;;;;;;;8.60;4.22;;;8.90;99.90;;;;;;4956416;28;20037;-83
2022/04/07 02:40:57;;;;;;;6.15;4.20;;;8.90;99.90;;;;;;4973991;28;20069;-83
2022/04/07 02:43:23;;;;;;;6.28;3.58;;;8.90;99.90;;;;;;4988406;28;20764;-83
2022/04/07 02:45:48;;;;;;;6.93;3.72;;;8.90;99.90;;;;;;4992990;28;20077;-83
2022/04/07 02:48:14;;;;;;;12.25;4.10;;;9.00;99.90;;;;;;4993613;28;20031;-83
2022/04/07 02:50:40;;;;;;;6.00;3.70;;;9.00;99.90;;;;;;4992938;28;20037;-82
2022/04/07 02:53:05;;;;;;;7.05;3.38;;;9.00;99.90;;;;;;4993108;28;20069;-82
2022/04/07 02:55:31;;;;;;;4.65;3.03;;;9.10;99.90;;;;;;4973854;28;20026;-83
2022/04/07 02:58:00;;;;;;;9.25;3.33;;;9.10;99.90;;;;;;4973484;28;20034;-83
2022/04/07 03:00:26;;;;;;;7.43;2.85;;;9.10;99.90;;;;;;4974023;28;20030;-83
2022/04/07 03:02:51;;;;;;;6.10;3.20;;;9.10;99.90;;;;;;4988044;28;20454;-83
2022/04/07 03:05:17;;;;;;;5.15;3.20;;;9.10;99.90;;;;;;4993016;28;20077;-83
2022/04/07 03:07:43;;;;;;;8.40;3.22;;;9.20;99.90;;;;;;4975486;28;20030;-83
2022/04/07 03:10:09;;;;;;;6.68;2.95;;;9.20;99.90;;;;;;4993182;28;20030;-83
2022/04/07 03:12:35;;;;;;;6.75;3.35;;;9.20;99.90;;;;;;5005636;28;20088;-83
2022/04/07 03:15:02;;;;;;;6.82;3.17;;;9.20;99.90;;;;;;5012263;28;20022;-83
2022/04/07 03:17:28;;;;;;;7.22;3.15;;;9.20;99.90;;;;;;5012726;28;20117;-83
2022/04/07 03:19:53;;;;;;;7.88;2.70;;;9.20;99.90;;;;;;5006893;28;20218;-83
2022/04/07 03:22:19;;;;;;;9.40;2.67;;;9.20;99.90;;;;;;4993002;28;20433;-83
2022/04/07 03:24:46;;;;;;;4.75;2.50;;;9.20;99.90;;;;;;4992998;28;20053;-82
2022/04/07 03:27:12;;;;;;;4.13;2.53;;;9.20;99.90;;;;;;4992939;28;20034;-83
2022/04/07 03:29:38;;;;;;;4.60;2.85;;;9.20;99.90;;;;;;4993073;28;20026;-83
2022/04/07 03:32:04;;;;;;;6.22;3.17;;;9.20;99.90;;;;;;4992578;28;20098;-82
2022/04/07 03:34:31;;;;;;;4.97;3.10;;;9.30;99.90;;;;;;4993334;28;20023;-83
2022/04/07 03:36:56;;;;;;;8.23;3.20;;;9.20;99.90;;;;;;4992550;28;20027;-82
2022/04/07 03:39:22;;;;;;;6.45;2.80;;;9.20;99.90;;;;;;4992977;28;20033;-83
2022/04/07 03:41:48;;;;;;;6.10;2.78;;;9.10;99.90;;;;;;4992388;28;20029;-83
2022/04/07 03:44:13;;;;;;;5.75;2.88;;;9.10;99.90;;;;;;4992601;28;20034;-82
2022/04/07 03:46:39;;;;;;;5.68;3.08;;;9.10;99.90;;;;;;4992734;28;20025;-83
2022/04/07 03:49:05;;;;;;;7.55;3.10;;;9.10;99.90;;;;;;4993801;28;20034;-83
2022/04/07 03:51:31;;;;;;;5.53;2.78;;;9.10;99.90;;;;;;4996642;28;20049;-83
2022/04/07 03:53:56;;;;;;;5.57;3.03;;;9.10;99.90;;;;;;4989076;28;20511;-82
2022/04/07 03:56:22;;;;;;;6.63;2.72;;;9.10;99.90;;;;;;4976793;28;20031;-83
2022/04/07 03:58:48;;;;;;;5.50;3.00;;;9.10;99.90;;;;;;4976866;28;20026;-82
2022/04/07 04:01:14;;;;;;;6.50;3.10;;;9.10;99.90;;;;;;4976141;28;20369;-83
2022/04/07 04:03:39;;;;;;;5.28;2.72;;;9.10;99.90;;;;;;4976982;28;20023;-83
2022/04/07 04:06:05;;;;;;;4.82;2.58;;;9.20;99.90;;;;;;4976553;28;20089;-83
2022/04/07 04:08:31;;;;;;;4.10;2.30;;;9.20;99.90;;;;;;4983675;28;20030;-83
2022/04/07 04:10:57;;;;;;;8.68;2.58;;;9.20;99.90;;;;;;5015753;28;20513;-83
2022/04/07 04:13:22;;;;;;;4.32;2.13;;;9.20;99.90;;;;;;5015770;28;20030;-84
2022/04/07 04:15:48;;;;;;;4.30;2.20;;;9.20;99.90;;;;;;5015516;28;20033;-86
2022/04/07 04:18:14;;;;;;;4.13;2.30;;;9.30;99.90;;;;;;4998026;28;20041;-84
2022/04/07 04:20:40;;;;;;;4.13;2.30;;;9.30;99.90;;;;;;4997892;28;20019;-82
2022/04/07 04:23:05;;;;;;;6.45;2.35;;;9.20;99.90;;;;;;5012434;28;20390;-82
2022/04/07 04:25:31;;;;;;;4.75;2.40;;;9.20;99.90;;;;;;4995914;28;20026;-83
2022/04/07 04:27:57;;;;;;;5.30;1.90;;;9.30;99.90;;;;;;4995795;28;20034;-82
2022/04/07 04:30:23;;;;;;;6.13;2.58;;;9.20;99.90;;;;;;4978037;28;20026;-81
2022/04/07 04:32:49;;;;;;;6.30;2.30;;;9.30;99.90;;;;;;4992104;28;20030;-81
2022/04/07 04:35:15;;;;;;;4.35;2.25;;;9.30;99.90;;;;;;4958871;28;20026;-81
2022/04/07 04:37:40;;;;;;;5.45;2.05;;;9.30;99.90;;;;;;4976232;28;20034;-81
2022/04/07 04:40:06;;;;;;;5.43;1.98;;;9.30;99.90;;;;;;4978231;28;20026;-81
2022/04/07 04:42:32;;;;;;;3.72;1.92;;;9.30;99.90;;;;;;4994142;28;20421;-81
2022/04/07 04:44:58;;;;;;;3.50;1.98;;;9.30;99.90;;;;;;4980526;28;20026;-83
2022/04/07 04:47:24;;;;;;;4.45;2.30;;;9.20;99.90;;;;;;4976051;28;20035;-81
2022/04/07 04:49:49;;;;;;;5.65;1.98;;;9.20;99.90;;;;;;4987861;28;20030;-82
2022/04/07 04:52:15;;;;;;;4.57;1.77;;;9.20;99.90;;;;;;4998581;28;20050;-83
2022/04/07 04:54:41;;;;;;;7.00;2.33;;;9.20;99.90;;;;;;4995157;28;20438;-80
2022/04/07 04:57:07;;;;;;;4.07;1.80;;;9.20;99.90;;;;;;4994550;28;20113;-80
2022/04/07 04:59:33;;;;;;;3.05;1.63;;;9.20;99.90;;;;;;4991694;28;20038;-80
2022/04/07 05:01:59;;;;;;;2.90;1.63;;;9.30;99.90;;;;;;4978993;28;20077;-80
2022/04/07 05:04:25;;;;;;;3.80;1.60;;;9.30;99.90;;;;;;4986819;28;20058;-79
2022/04/07 05:06:51;;;;;;;2.35;1.30;;;9.20;99.90;;;;;;4994939;28;20026;-80
2022/04/07 05:09:16;;;;;;;4.55;2.05;;;9.30;99.90;;;;;;4994506;28;20390;-80
2022/04/07 05:11:42;;;;;;;2.60;1.50;;;9.30;99.90;;;;;;4995208;28;20080;-81
2022/04/07 05:14:08;;;;;;;4.15;2.10;;;9.30;99.90;;;;;;4994609;28;20018;-81
2022/04/07 05:16:33;;;;;;;3.35;1.58;;;9.30;99.90;;;;;;4983417;28;20037;-81
2022/04/07 05:18:59;;;;;;;5.05;1.77;;;9.30;99.90;;;;;;4992920;28;20026;-81
2022/04/07 10:29:40;;;;;;;2.60;0.90;;;17.90;91.70;;;;;;4990235;28;20048;-78
2022/04/07 10:32:11;;;;;;;2.28;0.90;;;18.50;91.00;;;;;;4983249;28;20026;-81
2022/04/07 10:34:51;;;;;;;4.43;1.40;;;18.60;90.20;;;;;;4975979;28;20034;-79
2022/04/07 10:37:42;;;;;;;1.52;0.80;;;18.60;90.00;;;;;;4972648;28;20393;-78
2022/04/07 10:40:50;;;;;;;8.15;1.15;;;18.80;89.70;;;;;;4974182;28;20482;-77
2022/04/07 10:43:19;;;;;;;3.45;1.45;;;18.30;89.70;;;;;;4992190;28;20026;-78
2022/04/07 10:46:05;;;;;;;3.85;1.20;;;18.40;89.20;;;;;;4993263;28;20037;-78
2022/04/07 10:48:52;;;;;;;3.08;1.10;;;18.50;89.20;;;;;;4992956;28;20057;-78
2022/04/07 10:51:18;;;;;;;5.38;0.93;;;18.90;89.40;;;;;;4993064;28;20058;-77
2022/04/07 10:53:53;;;;;;;3.13;1.05;;;18.90;89.90;;;;;;4989333;28;20037;-77
2022/04/07 10:56:31;;;;;;;3.53;0.70;;;19.20;86.60;;;;;;4974310;28;20085;-78
2022/04/07 10:59:20;;;;;;;4.07;0.93;;;18.80;86.20;;;;;;4985021;28;20033;-77
2022/04/07 11:01:46;;;;;;;9.32;1.30;;;19.10;85.10;;;;;;4992739;28;20057;-77
2022/04/07 11:04:24;;;;;;;1.65;0.80;;;19.30;85.70;;;;;;4993622;28;20030;-77
2022/04/07 11:07:05;;;;;;;2.78;1.00;;;19.10;84.60;;;;;;4993249;28;20026;-78
2022/04/07 11:09:57;;;;;;;7.10;1.13;;;19.40;84.40;;;;;;4993437;28;20473;-78
2022/04/07 11:12:31;;;;;;;1.88;0.80;;;19.80;84.50;;;;;;4992998;28;20029;-77
2022/04/07 11:15:03;;;;;;;2.90;0.80;;;19.90;81.70;;;;;;4989983;28;20034;-78
2022/04/07 11:17:41;;;;;;;4.63;1.02;;;20.00;79.60;;;;;;4983204;28;20033;-78
2022/04/07 11:20:24;;;;;;;4.03;1.33;;;20.00;80.40;;;;;;4971999;28;20113;-78
2022/04/07 11:22:56;;;;;;;3.63;0.93;;;19.90;78.40;;;;;;4975566;28;20082;-78
2022/04/07 11:25:27;;;;;;;3.50;1.23;;;20.20;76.50;;;;;;4982324;28;20418;-78
2022/04/07 11:28:14;;;;;;;1.73;0.73;;;20.10;77.30;;;;;;4996016;28;20485;-78
2022/04/07 11:30:47;;;;;;;3.70;1.15;;;20.10;75.50;;;;;;4981278;28;20037;-78
2022/04/07 16:25:19;;;;;;;3.65;0.90;;;16.80;91.30;;;;;;5120935;23;20046;-80
2022/04/07 16:27:45;;;;;;;4.65;1.50;;;16.90;91.40;;;;;;4980140;28;20033;-85
2022/04/07 16:30:12;;;;;;;2.75;1.17;;;16.90;91.50;;;;;;5006318;28;20030;-81
2022/04/07 16:32:37;;;;;;;7.63;1.42;;;16.90;91.40;;;;;;4999188;28;20038;-80
2022/04/07 16:35:03;;;;;;;4.85;1.27;;;16.90;91.40;;;;;;4995402;28;20031;-81
2022/04/07 16:37:29;;;;;;;6.38;1.13;;;16.80;91.30;;;;;;4984932;28;20026;-81
2022/04/07 16:39:55;;;;;;;6.60;1.85;;;16.80;91.80;;;;;;5003780;28;20026;-81
2022/04/07 16:42:20;;;;;;;4.18;1.33;;;16.80;91.60;;;;;;4978312;28;20056;-83
2022/04/07 16:44:46;;;;;;;6.07;1.35;;;16.80;91.50;;;;;;4990164;28;20106;-86
2022/04/07 16:47:11;;;;;;;4.55;1.23;;;16.80;91.40;;;;;;4987661;28;20047;-81
2022/04/07 16:49:37;;;;;;;6.60;1.30;;;16.80;91.40;;;;;;5005997;28;20096;-85
2022/04/07 16:52:03;;;;;;;3.47;1.30;;;16.80;91.90;;;;;;5004946;28;20030;-83
2022/04/07 16:54:29;;;;;;;6.60;1.85;;;16.70;92.30;;;;;;5006427;28;20179;-81
2022/04/07 16:56:54;;;;;;;4.65;1.10;;;16.70;92.70;;;;;;5000478;28;20505;-87
2022/04/07 16:59:20;;;;;;;10.88;1.85;;;16.50;93.00;;;;;;5005458;28;20022;-82
2022/04/07 17:01:46;;;;;;;3.78;1.67;;;16.40;94.50;;;;;;4998344;28;20041;-82
2022/04/07 17:04:11;;;;;;;2.90;1.63;;;16.10;95.10;;;;;;5002410;28;20214;-85
2022/04/07 17:06:38;;;;;;;2.95;1.40;;;16.00;96.40;;;;;;5002589;28;20018;-82
2022/04/07 17:09:04;;;;;;;5.55;2.33;;;15.80;97.90;;;;;;5010452;28;20036;-86
2022/04/07 17:11:29;;;;;;;9.48;2.00;;;15.80;98.50;;;;;;5005384;28;20494;-87
2022/04/07 17:13:55;;;;;;;4.45;1.90;;;15.70;98.40;;;;;;4986285;28;20121;-82
2022/04/07 17:16:23;;;;;;;5.43;1.77;;;15.60;99.40;;;;;;5011048;28;20029;-83
2022/04/07 17:18:49;;;;;;;3.63;1.67;;;15.60;99.80;;;;;;5003540;28;20505;-81
2022/04/07 17:21:15;;;;;;;3.58;1.50;;;15.50;99.90;;;;;;5001958;28;20373;-83
2022/04/07 17:23:40;;;;;;;2.45;1.10;;;15.50;99.90;;;;;;5006875;28;20046;-80
2022/04/07 17:26:06;;;;;;;8.18;1.30;;;15.50;99.90;;;;;;4998009;28;20050;-79
2022/04/07 17:28:32;;;;;;;3.72;1.73;;;15.50;99.90;;;;;;4976717;28;20566;-84
2022/04/07 17:30:58;;;;;;;5.05;1.40;;;15.50;99.90;;;;;;4983695;28;20034;-86
2022/04/07 17:33:23;;;;;;;4.53;1.40;;;15.50;99.90;;;;;;4997215;28;20081;-77
2022/04/07 17:35:50;;;;;;;2.40;1.20;;;15.50;99.90;;;;;;4994606;28;20513;-81
2022/04/07 17:38:16;;;;;;;3.78;1.20;;;15.40;99.90;;;;;;4969924;28;20026;-82
2022/04/07 17:40:43;;;;;;;1.85;0.93;;;15.40;99.90;;;;;;5003319;28;20469;-82
2022/04/07 17:43:12;;;;;;;4.80;1.30;;;15.40;99.90;;;;;;4995332;28;20085;-79
2022/04/07 17:45:39;;;;;;;2.40;1.20;;;15.40;99.90;;;;;;5004958;28;20010;-82
2022/04/07 17:48:06;;;;;;;2.78;0.98;;;15.30;99.90;;;;;;4987121;28;20057;-83
2022/04/07 17:50:32;;;;;;;3.28;1.25;;;15.30;99.90;;;;;;5007381;28;20497;-82
2022/04/07 17:52:58;;;;;;;2.13;1.20;;;15.30;99.90;;;;;;5009280;28;20030;-82
2022/04/07 17:55:24;;;;;;;2.90;1.48;;;15.40;99.90;;;;;;4991487;28;20018;-82
2022/04/07 17:57:50;;;;;;;3.42;1.33;;;15.30;99.90;;;;;;4998332;28;20037;-82
2022/04/07 18:00:17;;;;;;;3.05;1.23;;;15.30;99.90;;;;;;4978498;28;20402;-83
2022/04/07 18:02:43;;;;;;;2.20;1.20;;;15.30;99.90;;;;;;4986097;28;20486;-84
2022/04/07 18:05:09;;;;;;;3.60;1.40;;;15.30;99.90;;;;;;4969508;28;20030;-80
2022/04/07 18:07:36;;;;;;;3.70;1.08;;;15.30;99.90;;;;;;4984629;28;20018;-83
2022/04/07 18:10:03;;;;;;;4.40;1.13;;;15.20;99.90;;;;;;4997471;28;20029;-81
2022/04/07 18:12:31;;;;;;;4.32;1.60;;;15.20;99.70;;;;;;5001939;28;20212;-81
2022/04/07 18:14:57;;;;;;;3.42;1.38;;;15.20;99.90;;;;;;4987642;28;20024;-81
2022/04/07 18:17:23;;;;;;;3.63;1.20;;;15.20;99.50;;;;;;5001872;28;20025;-81
2022/04/07 18:19:48;;;;;;;2.00;1.27;;;15.20;99.50;;;;;;5004043;28;20412;-81
2022/04/07 18:22:14;;;;;;;4.88;1.00;;;15.20;99.20;;;;;;4995801;28;20093;-81
2022/04/07 18:24:41;;;;;;;3.03;1.10;;;15.20;99.40;;;;;;5002851;28;20399;-82
2022/04/07 18:27:07;;;;;;;4.97;1.10;;;15.10;99.30;;;;;;4992960;28;20054;-85
2022/04/07 18:29:33;;;;;;;3.22;1.45;;;15.10;98.90;;;;;;5004443;28;20516;-82
2022/04/07 18:31:59;;;;;;;2.58;1.30;;;15.10;98.60;;;;;;4991599;28;20036;-84
2022/04/07 18:34:25;;;;;;;6.72;1.83;;;15.10;98.60;;;;;;4988621;28;20030;-83
2022/04/07 18:36:50;;;;;;;3.75;1.48;;;15.10;98.90;;;;;;5003101;28;20058;-78
2022/04/07 18:39:16;;;;;;;5.03;1.85;;;15.10;98.90;;;;;;4999212;28;20030;-77
2022/04/07 18:41:42;;;;;;;5.60;1.60;;;15.00;98.90;;;;;;5003016;28;20027;-76
2022/04/07 18:44:08;;;;;;;6.85;1.35;;;15.00;99.10;;;;;;5006033;28;20010;-76
2022/04/07 18:46:34;;;;;;;3.47;1.40;;;14.90;99.40;;;;;;5001950;28;20519;-76
2022/04/07 18:49:00;;;;;;;5.43;2.17;;;14.90;99.80;;;;;;4986594;28;20117;-76
2022/04/07 18:51:26;;;;;;;5.18;1.60;;;14.90;99.90;;;;;;5006819;28;20038;-77
2022/04/07 18:53:51;;;;;;;3.42;1.17;;;14.80;99.90;;;;;;4993459;28;20065;-77
2022/04/07 18:56:17;;;;;;;4.95;1.33;;;14.70;99.90;;;;;;4993373;28;20062;-76
2022/04/07 18:58:43;;;;;;;5.90;1.20;;;14.70;99.90;;;;;;4993078;28;20033;-76
2022/04/07 19:01:10;;;;;;;2.55;0.98;;;14.60;99.90;;;;;;4993481;28;20022;-76
2022/04/07 19:03:35;;;;;;;6.35;1.40;;;14.60;99.90;;;;;;4992850;28;20504;-77
2022/04/07 19:06:02;;;;;;;6.50;1.15;;;14.50;99.90;;;;;;4992467;28;20026;-77
2022/04/07 19:08:28;;;;;;;2.60;1.10;;;14.50;99.90;;;;;;4976895;28;20042;-76
2022/04/07 19:10:54;;;;;;;5.18;1.33;;;14.50;99.90;;;;;;4976661;28;20034;-77
2022/04/07 19:13:22;;;;;;;1.83;1.00;;;14.40;99.90;;;;;;4974051;28;20054;-77
2022/04/07 19:15:47;;;;;;;4.50;1.20;;;14.40;99.90;;;;;;4973780;28;20471;-76
2022/04/07 19:18:13;;;;;;;2.17;1.08;;;14.40;99.90;;;;;;4973861;28;20023;-78
2022/04/07 19:20:39;;;;;;;2.47;1.00;;;14.40;99.90;;;;;;4968300;28;20034;-77
2022/04/07 19:23:04;;;;;;;4.15;1.33;;;14.30;99.90;;;;;;4997213;28;20106;-77
2022/04/07 19:25:30;;;;;;;2.28;1.20;;;14.30;99.90;;;;;;4996973;28;20054;-77
2022/04/07 19:27:57;;;;;;;3.25;1.15;;;14.30;99.90;;;;;;4989147;28;20030;-77
2022/04/07 19:30:22;;;;;;;2.17;1.00;;;14.20;99.90;;;;;;4996748;28;20029;-77
2022/04/07 19:32:48;;;;;;;1.85;1.08;;;14.30;99.90;;;;;;4997268;28;20101;-77
2022/04/07 19:35:14;;;;;;;3.83;1.05;;;14.30;99.90;;;;;;4998225;28;20429;-77
2022/04/07 19:37:40;;;;;;;2.70;1.05;;;14.20;99.90;;;;;;4996649;28;20426;-77
2022/04/07 19:40:06;;;;;;;3.67;1.10;;;14.30;99.90;;;;;;4997199;28;20080;-76
2022/04/07 19:42:31;;;;;;;2.25;1.27;;;14.20;99.90;;;;;;4996465;28;20046;-77
2022/04/07 19:44:57;;;;;;;2.95;1.08;;;14.20;99.90;;;;;;4996077;28;20026;-77
2022/04/07 19:47:23;;;;;;;4.65;1.17;;;14.20;99.90;;;;;;4996937;28;20023;-77
2022/04/07 19:49:48;;;;;;;2.90;1.15;;;14.20;99.90;;;;;;4997137;28;20105;-77
2022/04/07 19:52:15;;;;;;;2.40;0.88;;;14.20;99.90;;;;;;4996831;28;20514;-77
2022/04/07 19:54:41;;;;;;;4.20;1.27;;;14.20;99.90;;;;;;4993234;28;20098;-77
2022/04/07 19:57:07;;;;;;;5.05;1.17;;;14.20;99.90;;;;;;4959871;28;20117;-77
2022/04/07 19:59:34;;;;;;;4.15;1.40;;;14.20;99.90;;;;;;4979987;28;20113;-77
2022/04/07 20:02:00;;;;;;;2.80;1.17;;;14.20;99.90;;;;;;4996390;28;20022;-76
2022/04/07 20:04:26;;;;;;;3.05;1.23;;;14.20;99.90;;;;;;4978809;28;20026;-77
2022/04/07 20:06:52;;;;;;;4.25;1.17;;;14.20;99.90;;;;;;4996541;28;20022;-77
2022/04/07 20:09:22;;;;;;;5.32;1.17;;;14.20;99.90;;;;;;4996602;28;20030;-77
2022/04/07 20:11:52;;;;;;;2.25;1.05;;;14.20;99.90;;;;;;4996273;28;20369;-77
2022/04/07 20:14:21;;;;;;;2.40;0.95;;;14.20;99.90;;;;;;4996531;28;20061;-77
2022/04/07 20:16:48;;;;;;;2.10;1.02;;;14.20;99.90;;;;;;4996003;28;20034;-77
2022/04/07 20:19:14;;;;;;;6.80;1.08;;;14.20;99.90;;;;;;4981443;28;20042;-77
2022/04/07 20:21:46;;;;;;;5.72;1.92;;;14.20;99.90;;;;;;4976997;28;20015;-77
2022/04/07 20:24:12;;;;;;;3.00;1.15;;;14.20;99.90;;;;;;4982885;28;20045;-78
2022/04/07 20:26:42;;;;;;;2.53;1.10;;;14.20;99.90;;;;;;4996431;28;20023;-77
2022/04/07 20:29:13;;;;;;;3.05;1.33;;;14.20;99.90;;;;;;4987423;28;20117;-77
2022/04/07 20:31:41;;;;;;;2.88;1.38;;;14.20;99.90;;;;;;4994454;28;20030;-77
2022/04/07 20:34:07;;;;;;;3.38;1.05;;;14.20;99.90;;;;;;4996116;28;20034;-77
2022/04/07 20:36:34;;;;;;;4.40;1.40;;;14.20;99.90;;;;;;4996132;28;20030;-77
2022/04/07 20:39:00;;;;;;;2.60;1.10;;;14.20;99.90;;;;;;4995771;28;20433;-77
2022/04/07 20:41:25;;;;;;;3.38;1.15;;;14.20;99.90;;;;;;4995971;28;20050;-77
2022/04/07 20:43:51;;;;;;;1.77;1.00;;;14.10;99.90;;;;;;4995675;28;20085;-77
2022/04/07 20:46:17;;;;;;;3.30;1.15;;;14.20;99.90;;;;;;4980876;28;20023;-77
2022/04/07 20:48:42;;;;;;;2.67;1.10;;;14.20;99.90;;;;;;4976450;28;20501;-77
2022/04/07 20:51:08;;;;;;;3.65;1.30;;;14.20;99.90;;;;;;4976200;28;20549;-77
2022/04/07 20:53:34;;;;;;;3.72;1.35;;;14.20;99.90;;;;;;4976107;28;20030;-77
2022/04/07 20:55:59;;;;;;;3.35;1.00;;;14.10;99.90;;;;;;4975791;28;20589;-77
2022/04/07 20:58:25;;;;;;;2.38;1.02;;;14.20;99.90;;;;;;4976121;28;20378;-77
2022/04/07 21:00:51;;;;;;;3.30;1.20;;;14.10;99.90;;;;;;4983294;28;20374;-77
2022/04/07 21:03:17;;;;;;;8.60;1.30;;;14.10;99.90;;;;;;4977933;28;20382;-77
2022/04/07 21:05:43;;;;;;;3.08;1.00;;;14.10;99.90;;;;;;4995552;28;20080;-77
2022/04/07 21:08:08;;;;;;;4.38;0.93;;;14.10;99.90;;;;;;4995262;28;20034;-77
2022/04/07 21:10:34;;;;;;;3.75;1.10;;;14.10;99.90;;;;;;4995099;28;20070;-77
2022/04/07 21:13:00;;;;;;;5.28;1.58;;;14.10;99.90;;;;;;4995192;28;20027;-77
2022/04/07 21:15:26;;;;;;;3.10;0.85;;;14.10;99.90;;;;;;4995400;28;20030;-77
2022/04/07 21:17:52;;;;;;;2.15;1.08;;;14.10;99.90;;;;;;4994884;28;20473;-77
2022/04/07 21:20:18;;;;;;;2.20;0.88;;;14.10;99.90;;;;;;4989694;28;20465;-77
2022/04/07 21:22:43;;;;;;;3.70;0.80;;;14.10;99.90;;;;;;4975835;28;20027;-77
2022/04/07 21:25:10;;;;;;;3.03;0.73;;;14.10;99.90;;;;;;4977513;28;20078;-77
2022/04/07 21:27:35;;;;;;;3.08;1.05;;;14.10;99.90;;;;;;4975794;28;20109;-77
2022/04/07 21:30:02;;;;;;;3.72;1.15;;;14.10;99.90;;;;;;4982785;28;20113;-77
2022/04/07 21:32:28;;;;;;;3.22;1.23;;;14.10;99.90;;;;;;4993595;28;20462;-77
2022/04/07 21:34:53;;;;;;;2.28;0.93;;;14.00;99.90;;;;;;4994982;28;20033;-77
2022/04/07 21:37:19;;;;;;;2.45;1.10;;;13.90;99.90;;;;;;4994871;28;20030;-77
2022/04/07 21:39:45;;;;;;;3.42;0.93;;;13.80;99.90;;;;;;4994565;28;20023;-78
2022/04/07 21:42:10;;;;;;;3.53;0.80;;;13.60;99.90;;;;;;4994632;28;20030;-77
2022/04/07 21:44:36;;;;;;;5.05;1.02;;;13.60;99.90;;;;;;4991666;28;20034;-77
2022/04/07 21:47:02;;;;;;;2.22;0.90;;;13.50;99.90;;;;;;4975146;28;20078;-77
2022/04/07 21:49:27;;;;;;;3.90;1.33;;;13.50;99.90;;;;;;4978116;28;20080;-77
2022/04/07 21:51:53;;;;;;;3.22;1.08;;;13.50;99.90;;;;;;4994815;28;20489;-77
2022/04/07 21:54:18;;;;;;;2.78;1.15;;;13.50;99.90;;;;;;4976690;28;20038;-77
2022/04/07 21:56:44;;;;;;;3.80;1.25;;;13.40;99.90;;;;;;4994609;28;20030;-77
2022/04/07 21:59:10;;;;;;;3.95;1.08;;;13.30;99.90;;;;;;4994245;28;20046;-78
2022/04/07 22:01:41;;;;;;;1.95;0.98;;;13.30;99.90;;;;;;4994488;28;20102;-77
2022/04/07 22:04:09;;;;;;;5.82;1.30;;;13.40;99.90;;;;;;4994537;28;20025;-77
2022/04/07 22:06:35;;;;;;;3.22;0.93;;;13.40;99.90;;;;;;4976685;28;20374;-77
2022/04/07 22:09:01;;;;;;;3.50;1.00;;;13.40;99.90;;;;;;4993919;28;20026;-77
2022/04/07 22:11:26;;;;;;;2.85;0.98;;;13.40;99.90;;;;;;4979319;28;20054;-77
2022/04/07 22:13:52;;;;;;;1.75;1.20;;;13.40;99.90;;;;;;4982281;28;20026;-77
2022/04/07 22:16:18;;;;;;;2.22;0.80;;;13.40;99.90;;;;;;4976538;28;20038;-77
2022/04/07 22:18:44;;;;;;;1.83;0.80;;;13.40;99.90;;;;;;4993761;28;20039;-77
2022/04/07 22:21:10;;;;;;;4.40;1.20;;;13.50;99.90;;;;;;4994030;28;20026;-77
2022/04/07 22:23:36;;;;;;;2.28;0.85;;;13.40;99.90;;;;;;4993824;28;20065;-77
2022/04/07 22:26:01;;;;;;;3.03;0.95;;;13.40;99.90;;;;;;5013704;28;20058;-77
2022/04/07 22:28:27;;;;;;;1.55;0.90;;;13.40;99.90;;;;;;5013368;28;20033;-77
2022/04/07 22:30:53;;;;;;;3.78;1.00;;;13.30;99.90;;;;;;5002429;28;20053;-77
2022/04/07 22:33:18;;;;;;;2.40;1.38;;;13.40;99.90;;;;;;4993603;28;20415;-77
2022/04/07 22:35:44;;;;;;;1.77;0.77;;;13.40;99.90;;;;;;4994009;28;20105;-77
2022/04/07 22:38:10;;;;;;;3.10;1.00;;;13.40;99.90;;;;;;4994305;28;20026;-77
2022/04/07 22:40:35;;;;;;;2.85;0.85;;;13.40;99.90;;;;;;4998952;28;20031;-77
2022/04/07 22:43:02;;;;;;;4.57;1.25;;;13.40;99.90;;;;;;4993664;28;20018;-77
2022/04/07 22:45:27;;;;;;;1.17;0.93;;;13.40;99.90;;;;;;4993552;28;20057;-77
2022/04/07 22:47:53;;;;;;;3.13;1.20;;;13.40;99.90;;;;;;4993879;28;20061;-77
2022/04/07 22:50:19;;;;;;;4.22;0.85;;;13.30;99.90;;;;;;5001310;28;20038;-77